sensor_id;sensor_type;location;lat;lon;timestamp;P1;durP1;ratioP1;P2;durP2;ratioP2
75450;SDS011;64029;48.244;9.188;2023-06-22T00:00:32;10.13;;;6.53;;
75450;SDS011;64029;48.244;9.188;2023-06-22T00:02:59;10.30;;;6.20;;
75450;SDS011;64029;48.244;9.188;2023-06-22T00:05:27;12.80;;;6.67;;
75450;SDS011;64029;48.244;9.188;2023-06-22T00:07:54;10.47;;;6.63;;
75450;SDS011;64029;48.244;9.188;2023-06-22T00:10:21;10.03;;;7.20;;
75450;SDS011;64029;48.244;9.188;2023-06-22T00:12:47;6.23;;;5.63;;
75450;SDS011;64029;48.244;9.188;2023-06-22T00:15:14;8.73;;;5.90;;
75450;SDS011;64029;48.244;9.188;2023-06-22T00:17:41;8.40;;;6.00;;
75450;SDS011;64029;48.244;9.188;2023-06-22T00:20:08;9.40;;;6.50;;
75450;SDS011;64029;48.244;9.188;2023-06-22T00:22:37;7.53;;;5.73;;
75450;SDS011;64029;48.244;9.188;2023-06-22T00:25:05;11.47;;;6.60;;
75450;SDS011;64029;48.244;9.188;2023-06-22T00:27:32;8.03;;;5.70;;
75450;SDS011;64029;48.244;9.188;2023-06-22T00:29:59;12.10;;;6.30;;
75450;SDS011;64029;48.244;9.188;2023-06-22T00:32:26;11.33;;;5.70;;
75450;SDS011;64029;48.244;9.188;2023-06-22T00:34:53;9.50;;;6.43;;
75450;SDS011;64029;48.244;9.188;2023-06-22T00:37:20;9.00;;;5.60;;
75450;SDS011;64029;48.244;9.188;2023-06-22T00:39:52;10.70;;;6.60;;
75450;SDS011;64029;48.244;9.188;2023-06-22T00:42:18;9.60;;;6.10;;
75450;SDS011;64029;48.244;9.188;2023-06-22T00:44:45;13.20;;;6.60;;
75450;SDS011;64029;48.244;9.188;2023-06-22T00:47:13;13.03;;;6.23;;
75450;SDS011;64029;48.244;9.188;2023-06-22T00:49:41;12.50;;;5.90;;
75450;SDS011;64029;48.244;9.188;2023-06-22T00:52:09;9.23;;;5.60;;
75450;SDS011;64029;48.244;9.188;2023-06-22T00:54:38;14.77;;;6.10;;
75450;SDS011;64029;48.244;9.188;2023-06-22T00:57:11;9.43;;;5.60;;
75450;SDS011;64029;48.244;9.188;2023-06-22T00:59:41;8.67;;;5.57;;
75450;SDS011;64029;48.244;9.188;2023-06-22T01:02:08;8.17;;;5.47;;
75450;SDS011;64029;48.244;9.188;2023-06-22T01:04:36;6.87;;;5.60;;
75450;SDS011;64029;48.244;9.188;2023-06-22T01:07:06;10.97;;;5.60;;
75450;SDS011;64029;48.244;9.188;2023-06-22T01:09:41;9.97;;;6.00;;
75450;SDS011;64029;48.244;9.188;2023-06-22T01:12:16;9.23;;;6.00;;
75450;SDS011;64029;48.244;9.188;2023-06-22T01:14:47;10.90;;;5.70;;
75450;SDS011;64029;48.244;9.188;2023-06-22T01:17:20;9.17;;;5.83;;
75450;SDS011;64029;48.244;9.188;2023-06-22T01:19:48;8.03;;;5.97;;
75450;SDS011;64029;48.244;9.188;2023-06-22T01:22:20;9.67;;;5.93;;
75450;SDS011;64029;48.244;9.188;2023-06-22T01:24:51;6.70;;;5.33;;
75450;SDS011;64029;48.244;9.188;2023-06-22T01:27:31;9.23;;;5.37;;
75450;SDS011;64029;48.244;9.188;2023-06-22T01:30:07;8.40;;;5.13;;
75450;SDS011;64029;48.244;9.188;2023-06-22T01:32:37;5.80;;;5.20;;
75450;SDS011;64029;48.244;9.188;2023-06-22T01:35:06;12.23;;;5.57;;
75450;SDS011;64029;48.244;9.188;2023-06-22T01:37:34;10.03;;;5.97;;
75450;SDS011;64029;48.244;9.188;2023-06-22T01:40:04;8.90;;;5.53;;
75450;SDS011;64029;48.244;9.188;2023-06-22T01:42:33;15.93;;;5.83;;
75450;SDS011;64029;48.244;9.188;2023-06-22T01:45:01;10.70;;;6.00;;
75450;SDS011;64029;48.244;9.188;2023-06-22T01:47:30;7.70;;;5.10;;
75450;SDS011;64029;48.244;9.188;2023-06-22T01:49:57;13.50;;;6.27;;
75450;SDS011;64029;48.244;9.188;2023-06-22T01:52:24;7.07;;;5.77;;
75450;SDS011;64029;48.244;9.188;2023-06-22T01:54:51;10.57;;;6.00;;
75450;SDS011;64029;48.244;9.188;2023-06-22T01:57:18;9.57;;;5.17;;
75450;SDS011;64029;48.244;9.188;2023-06-22T01:59:48;12.77;;;6.00;;
75450;SDS011;64029;48.244;9.188;2023-06-22T02:02:20;8.77;;;4.80;;
75450;SDS011;64029;48.244;9.188;2023-06-22T02:04:56;8.37;;;5.10;;
75450;SDS011;64029;48.244;9.188;2023-06-22T02:07:27;9.50;;;5.60;;
75450;SDS011;64029;48.244;9.188;2023-06-22T02:09:58;9.87;;;5.40;;
75450;SDS011;64029;48.244;9.188;2023-06-22T02:12:28;8.27;;;5.63;;
75450;SDS011;64029;48.244;9.188;2023-06-22T02:14:55;10.97;;;5.77;;
75450;SDS011;64029;48.244;9.188;2023-06-22T02:17:23;6.60;;;4.83;;
75450;SDS011;64029;48.244;9.188;2023-06-22T02:19:52;9.10;;;5.60;;
75450;SDS011;64029;48.244;9.188;2023-06-22T02:22:20;8.37;;;5.70;;
75450;SDS011;64029;48.244;9.188;2023-06-22T02:24:47;7.00;;;5.70;;
75450;SDS011;64029;48.244;9.188;2023-06-22T02:27:13;9.70;;;6.17;;
75450;SDS011;64029;48.244;9.188;2023-06-22T02:29:40;8.77;;;5.40;;
75450;SDS011;64029;48.244;9.188;2023-06-22T02:32:07;10.47;;;5.30;;
75450;SDS011;64029;48.244;9.188;2023-06-22T02:34:34;10.50;;;5.67;;
75450;SDS011;64029;48.244;9.188;2023-06-22T02:37:01;9.73;;;5.27;;
75450;SDS011;64029;48.244;9.188;2023-06-22T02:39:30;8.00;;;5.80;;
75450;SDS011;64029;48.244;9.188;2023-06-22T02:41:57;12.80;;;5.10;;
75450;SDS011;64029;48.244;9.188;2023-06-22T02:44:23;10.47;;;5.37;;
75450;SDS011;64029;48.244;9.188;2023-06-22T02:46:50;9.23;;;5.37;;
75450;SDS011;64029;48.244;9.188;2023-06-22T02:49:19;7.97;;;4.77;;
75450;SDS011;64029;48.244;9.188;2023-06-22T02:51:46;9.50;;;5.10;;
75450;SDS011;64029;48.244;9.188;2023-06-22T02:54:14;8.83;;;4.67;;
75450;SDS011;64029;48.244;9.188;2023-06-22T02:56:42;8.73;;;5.87;;
75450;SDS011;64029;48.244;9.188;2023-06-22T02:59:10;6.80;;;4.97;;
75450;SDS011;64029;48.244;9.188;2023-06-22T03:01:37;10.60;;;5.50;;
75450;SDS011;64029;48.244;9.188;2023-06-22T03:04:04;5.50;;;4.23;;
75450;SDS011;64029;48.244;9.188;2023-06-22T03:06:31;6.40;;;4.60;;
75450;SDS011;64029;48.244;9.188;2023-06-22T03:08:59;7.30;;;5.00;;
75450;SDS011;64029;48.244;9.188;2023-06-22T03:11:28;7.90;;;4.73;;
75450;SDS011;64029;48.244;9.188;2023-06-22T03:13:57;9.13;;;5.10;;
75450;SDS011;64029;48.244;9.188;2023-06-22T03:16:24;8.27;;;5.23;;
75450;SDS011;64029;48.244;9.188;2023-06-22T03:18:51;8.30;;;4.50;;
75450;SDS011;64029;48.244;9.188;2023-06-22T03:21:18;14.83;;;5.20;;
75450;SDS011;64029;48.244;9.188;2023-06-22T03:23:45;10.13;;;5.20;;
75450;SDS011;64029;48.244;9.188;2023-06-22T03:26:12;6.80;;;5.20;;
75450;SDS011;64029;48.244;9.188;2023-06-22T03:28:39;7.53;;;4.43;;
75450;SDS011;64029;48.244;9.188;2023-06-22T03:31:07;8.67;;;6.27;;
75450;SDS011;64029;48.244;9.188;2023-06-22T03:33:34;7.93;;;5.20;;
75450;SDS011;64029;48.244;9.188;2023-06-22T03:36:01;6.93;;;4.97;;
75450;SDS011;64029;48.244;9.188;2023-06-22T03:38:29;7.27;;;4.90;;
75450;SDS011;64029;48.244;9.188;2023-06-22T03:40:56;7.43;;;5.20;;
75450;SDS011;64029;48.244;9.188;2023-06-22T03:43:23;15.00;;;5.20;;
75450;SDS011;64029;48.244;9.188;2023-06-22T03:45:49;11.27;;;5.00;;
75450;SDS011;64029;48.244;9.188;2023-06-22T03:48:18;8.63;;;5.27;;
75450;SDS011;64029;48.244;9.188;2023-06-22T03:50:44;10.63;;;4.90;;
75450;SDS011;64029;48.244;9.188;2023-06-22T03:53:11;8.20;;;4.10;;
75450;SDS011;64029;48.244;9.188;2023-06-22T03:55:42;10.97;;;5.20;;
75450;SDS011;64029;48.244;9.188;2023-06-22T03:58:14;9.00;;;4.50;;
75450;SDS011;64029;48.244;9.188;2023-06-22T04:00:41;9.70;;;5.17;;
75450;SDS011;64029;48.244;9.188;2023-06-22T04:03:08;5.80;;;4.23;;
75450;SDS011;64029;48.244;9.188;2023-06-22T04:05:39;10.30;;;4.77;;
75450;SDS011;64029;48.244;9.188;2023-06-22T04:08:06;6.93;;;5.10;;
75450;SDS011;64029;48.244;9.188;2023-06-22T04:10:33;6.80;;;4.80;;
75450;SDS011;64029;48.244;9.188;2023-06-22T04:13:00;9.57;;;5.00;;
75450;SDS011;64029;48.244;9.188;2023-06-22T04:15:27;6.77;;;4.53;;
75450;SDS011;64029;48.244;9.188;2023-06-22T04:17:54;7.97;;;4.57;;
75450;SDS011;64029;48.244;9.188;2023-06-22T04:20:21;9.00;;;5.30;;
75450;SDS011;64029;48.244;9.188;2023-06-22T04:22:51;7.43;;;5.73;;
75450;SDS011;64029;48.244;9.188;2023-06-22T04:25:18;5.13;;;4.10;;
75450;SDS011;64029;48.244;9.188;2023-06-22T04:27:46;8.13;;;5.20;;
75450;SDS011;64029;48.244;9.188;2023-06-22T04:30:13;8.37;;;4.60;;
75450;SDS011;64029;48.244;9.188;2023-06-22T04:32:41;7.20;;;4.50;;
75450;SDS011;64029;48.244;9.188;2023-06-22T04:35:08;7.10;;;4.90;;
75450;SDS011;64029;48.244;9.188;2023-06-22T04:37:35;8.70;;;4.50;;
75450;SDS011;64029;48.244;9.188;2023-06-22T04:40:04;5.30;;;4.80;;
75450;SDS011;64029;48.244;9.188;2023-06-22T04:42:33;9.40;;;5.73;;
75450;SDS011;64029;48.244;9.188;2023-06-22T04:45:00;7.27;;;5.17;;
75450;SDS011;64029;48.244;9.188;2023-06-22T04:47:27;7.73;;;4.97;;
75450;SDS011;64029;48.244;9.188;2023-06-22T04:49:54;6.87;;;4.37;;
75450;SDS011;64029;48.244;9.188;2023-06-22T04:52:21;13.07;;;4.93;;
75450;SDS011;64029;48.244;9.188;2023-06-22T04:54:49;7.23;;;5.20;;
75450;SDS011;64029;48.244;9.188;2023-06-22T04:57:22;6.90;;;4.90;;
75450;SDS011;64029;48.244;9.188;2023-06-22T04:59:55;8.27;;;4.70;;
75450;SDS011;64029;48.244;9.188;2023-06-22T05:02:22;10.37;;;5.63;;
75450;SDS011;64029;48.244;9.188;2023-06-22T05:04:57;6.97;;;4.97;;
75450;SDS011;64029;48.244;9.188;2023-06-22T05:07:24;9.43;;;5.40;;
75450;SDS011;64029;48.244;9.188;2023-06-22T05:09:51;8.70;;;4.57;;
75450;SDS011;64029;48.244;9.188;2023-06-22T05:12:18;7.90;;;5.53;;
75450;SDS011;64029;48.244;9.188;2023-06-22T05:14:46;7.40;;;4.83;;
75450;SDS011;64029;48.244;9.188;2023-06-22T05:17:13;7.27;;;4.70;;
75450;SDS011;64029;48.244;9.188;2023-06-22T05:19:44;8.57;;;4.60;;
75450;SDS011;64029;48.244;9.188;2023-06-22T05:22:13;5.53;;;4.90;;
75450;SDS011;64029;48.244;9.188;2023-06-22T05:24:40;12.70;;;4.70;;
75450;SDS011;64029;48.244;9.188;2023-06-22T05:27:07;8.57;;;4.50;;
75450;SDS011;64029;48.244;9.188;2023-06-22T05:29:34;6.53;;;5.60;;
75450;SDS011;64029;48.244;9.188;2023-06-22T05:32:03;9.07;;;5.03;;
75450;SDS011;64029;48.244;9.188;2023-06-22T05:34:30;9.40;;;5.13;;
75450;SDS011;64029;48.244;9.188;2023-06-22T05:36:57;6.50;;;4.33;;
75450;SDS011;64029;48.244;9.188;2023-06-22T05:39:24;6.27;;;4.57;;
75450;SDS011;64029;48.244;9.188;2023-06-22T05:41:51;9.40;;;5.97;;
75450;SDS011;64029;48.244;9.188;2023-06-22T05:44:18;9.13;;;4.83;;
75450;SDS011;64029;48.244;9.188;2023-06-22T05:46:45;10.40;;;5.27;;
75450;SDS011;64029;48.244;9.188;2023-06-22T05:49:14;9.07;;;5.73;;
75450;SDS011;64029;48.244;9.188;2023-06-22T05:51:42;5.40;;;4.90;;
75450;SDS011;64029;48.244;9.188;2023-06-22T05:54:09;9.47;;;6.57;;
75450;SDS011;64029;48.244;9.188;2023-06-22T05:56:38;9.20;;;5.90;;
75450;SDS011;64029;48.244;9.188;2023-06-22T05:59:05;14.23;;;6.47;;
75450;SDS011;64029;48.244;9.188;2023-06-22T06:01:32;14.07;;;6.20;;
75450;SDS011;64029;48.244;9.188;2023-06-22T06:04:00;12.90;;;6.97;;
75450;SDS011;64029;48.244;9.188;2023-06-22T06:06:30;9.80;;;5.90;;
75450;SDS011;64029;48.244;9.188;2023-06-22T06:08:57;11.20;;;5.37;;
75450;SDS011;64029;48.244;9.188;2023-06-22T06:11:24;10.50;;;5.77;;
75450;SDS011;64029;48.244;9.188;2023-06-22T06:13:51;15.27;;;7.27;;
75450;SDS011;64029;48.244;9.188;2023-06-22T06:16:18;10.37;;;6.83;;
75450;SDS011;64029;48.244;9.188;2023-06-22T06:18:45;10.53;;;6.50;;
75450;SDS011;64029;48.244;9.188;2023-06-22T06:21:13;11.90;;;6.20;;
75450;SDS011;64029;48.244;9.188;2023-06-22T06:23:42;12.90;;;6.40;;
75450;SDS011;64029;48.244;9.188;2023-06-22T06:26:09;13.87;;;6.97;;
75450;SDS011;64029;48.244;9.188;2023-06-22T06:28:35;8.07;;;6.13;;
75450;SDS011;64029;48.244;9.188;2023-06-22T06:31:02;11.40;;;5.70;;
75450;SDS011;64029;48.244;9.188;2023-06-22T06:33:33;9.50;;;6.47;;
75450;SDS011;64029;48.244;9.188;2023-06-22T06:36:00;12.47;;;6.40;;
75450;SDS011;64029;48.244;9.188;2023-06-22T06:38:28;11.23;;;6.47;;
75450;SDS011;64029;48.244;9.188;2023-06-22T06:40:57;8.93;;;5.70;;
75450;SDS011;64029;48.244;9.188;2023-06-22T06:43:24;7.80;;;5.50;;
75450;SDS011;64029;48.244;9.188;2023-06-22T06:45:51;11.83;;;5.77;;
75450;SDS011;64029;48.244;9.188;2023-06-22T06:48:18;9.57;;;5.97;;
75450;SDS011;64029;48.244;9.188;2023-06-22T06:50:44;9.63;;;6.30;;
75450;SDS011;64029;48.244;9.188;2023-06-22T06:53:11;11.90;;;6.90;;
75450;SDS011;64029;48.244;9.188;2023-06-22T06:55:38;12.53;;;6.30;;
75450;SDS011;64029;48.244;9.188;2023-06-22T06:58:07;8.47;;;6.63;;
75450;SDS011;64029;48.244;9.188;2023-06-22T07:00:34;11.20;;;6.33;;
75450;SDS011;64029;48.244;9.188;2023-06-22T07:03:02;9.93;;;6.03;;
75450;SDS011;64029;48.244;9.188;2023-06-22T07:05:29;9.60;;;6.17;;
75450;SDS011;64029;48.244;9.188;2023-06-22T07:07:55;7.57;;;6.13;;
75450;SDS011;64029;48.244;9.188;2023-06-22T07:10:22;11.73;;;6.87;;
75450;SDS011;64029;48.244;9.188;2023-06-22T07:12:49;11.17;;;6.60;;
75450;SDS011;64029;48.244;9.188;2023-06-22T07:15:17;8.00;;;6.17;;
75450;SDS011;64029;48.244;9.188;2023-06-22T07:17:44;11.93;;;6.43;;
75450;SDS011;64029;48.244;9.188;2023-06-22T07:20:11;13.60;;;6.90;;
75450;SDS011;64029;48.244;9.188;2023-06-22T07:22:39;9.30;;;6.10;;
75450;SDS011;64029;48.244;9.188;2023-06-22T07:25:07;10.07;;;5.73;;
75450;SDS011;64029;48.244;9.188;2023-06-22T07:27:35;9.07;;;5.43;;
75450;SDS011;64029;48.244;9.188;2023-06-22T07:30:04;8.47;;;6.17;;
75450;SDS011;64029;48.244;9.188;2023-06-22T07:32:33;8.97;;;5.70;;
75450;SDS011;64029;48.244;9.188;2023-06-22T07:34:59;10.67;;;5.30;;
75450;SDS011;64029;48.244;9.188;2023-06-22T07:37:27;7.60;;;5.33;;
75450;SDS011;64029;48.244;9.188;2023-06-22T07:39:54;8.10;;;5.70;;
75450;SDS011;64029;48.244;9.188;2023-06-22T07:42:23;10.37;;;6.47;;
75450;SDS011;64029;48.244;9.188;2023-06-22T07:44:50;9.07;;;6.10;;
75450;SDS011;64029;48.244;9.188;2023-06-22T07:47:17;8.87;;;5.60;;
75450;SDS011;64029;48.244;9.188;2023-06-22T07:49:45;7.33;;;5.63;;
75450;SDS011;64029;48.244;9.188;2023-06-22T07:52:12;7.90;;;5.43;;
75450;SDS011;64029;48.244;9.188;2023-06-22T07:54:39;7.73;;;5.60;;
75450;SDS011;64029;48.244;9.188;2023-06-22T07:57:06;8.30;;;6.07;;
75450;SDS011;64029;48.244;9.188;2023-06-22T07:59:33;8.00;;;5.30;;
75450;SDS011;64029;48.244;9.188;2023-06-22T08:01:59;7.60;;;5.90;;
75450;SDS011;64029;48.244;9.188;2023-06-22T08:04:28;11.50;;;6.93;;
75450;SDS011;64029;48.244;9.188;2023-06-22T08:06:58;9.83;;;6.50;;
75450;SDS011;64029;48.244;9.188;2023-06-22T08:09:25;8.60;;;5.80;;
75450;SDS011;64029;48.244;9.188;2023-06-22T08:11:54;8.43;;;5.70;;
75450;SDS011;64029;48.244;9.188;2023-06-22T08:14:21;14.73;;;6.80;;
75450;SDS011;64029;48.244;9.188;2023-06-22T08:16:48;10.20;;;5.97;;
75450;SDS011;64029;48.244;9.188;2023-06-22T08:19:15;11.10;;;6.73;;
75450;SDS011;64029;48.244;9.188;2023-06-22T08:21:42;9.53;;;6.60;;
75450;SDS011;64029;48.244;9.188;2023-06-22T08:24:10;10.30;;;6.93;;
75450;SDS011;64029;48.244;9.188;2023-06-22T08:26:37;9.57;;;8.03;;
75450;SDS011;64029;48.244;9.188;2023-06-22T08:29:04;9.43;;;6.23;;
75450;SDS011;64029;48.244;9.188;2023-06-22T08:31:31;11.77;;;7.37;;
75450;SDS011;64029;48.244;9.188;2023-06-22T08:33:59;9.80;;;5.97;;
75450;SDS011;64029;48.244;9.188;2023-06-22T08:36:26;9.37;;;6.27;;
75450;SDS011;64029;48.244;9.188;2023-06-22T08:38:54;10.27;;;6.83;;
75450;SDS011;64029;48.244;9.188;2023-06-22T08:41:24;11.23;;;6.83;;
75450;SDS011;64029;48.244;9.188;2023-06-22T08:43:51;11.73;;;6.30;;
75450;SDS011;64029;48.244;9.188;2023-06-22T08:46:18;9.17;;;7.30;;
75450;SDS011;64029;48.244;9.188;2023-06-22T08:48:48;10.87;;;7.67;;
75450;SDS011;64029;48.244;9.188;2023-06-22T08:51:15;12.33;;;7.17;;
75450;SDS011;64029;48.244;9.188;2023-06-22T08:53:42;10.73;;;6.40;;
75450;SDS011;64029;48.244;9.188;2023-06-22T08:56:10;13.73;;;6.60;;
75450;SDS011;64029;48.244;9.188;2023-06-22T08:58:38;11.40;;;6.30;;
75450;SDS011;64029;48.244;9.188;2023-06-22T09:01:05;8.53;;;6.47;;
75450;SDS011;64029;48.244;9.188;2023-06-22T09:03:31;13.00;;;6.67;;
75450;SDS011;64029;48.244;9.188;2023-06-22T09:06:01;10.63;;;7.43;;
75450;SDS011;64029;48.244;9.188;2023-06-22T09:08:28;11.87;;;7.30;;
75450;SDS011;64029;48.244;9.188;2023-06-22T09:10:55;16.63;;;7.23;;
75450;SDS011;64029;48.244;9.188;2023-06-22T09:13:22;17.40;;;7.00;;
75450;SDS011;64029;48.244;9.188;2023-06-22T09:15:50;14.07;;;7.10;;
75450;SDS011;64029;48.244;9.188;2023-06-22T09:18:17;14.30;;;6.53;;
75450;SDS011;64029;48.244;9.188;2023-06-22T09:20:44;16.17;;;7.30;;
75450;SDS011;64029;48.244;9.188;2023-06-22T09:23:11;16.43;;;8.30;;
75450;SDS011;64029;48.244;9.188;2023-06-22T09:25:38;9.10;;;6.50;;
75450;SDS011;64029;48.244;9.188;2023-06-22T09:28:06;12.70;;;6.77;;
75450;SDS011;64029;48.244;9.188;2023-06-22T09:30:33;16.83;;;7.30;;
75450;SDS011;64029;48.244;9.188;2023-06-22T09:33:01;12.23;;;7.50;;
75450;SDS011;64029;48.244;9.188;2023-06-22T09:35:28;14.93;;;7.50;;
75450;SDS011;64029;48.244;9.188;2023-06-22T09:37:54;14.73;;;7.20;;
75450;SDS011;64029;48.244;9.188;2023-06-22T09:40:21;12.20;;;6.90;;
75450;SDS011;64029;48.244;9.188;2023-06-22T09:42:48;10.90;;;6.93;;
75450;SDS011;64029;48.244;9.188;2023-06-22T09:45:15;9.73;;;6.83;;
75450;SDS011;64029;48.244;9.188;2023-06-22T09:47:42;15.90;;;7.50;;
75450;SDS011;64029;48.244;9.188;2023-06-22T09:50:10;16.20;;;7.10;;
75450;SDS011;64029;48.244;9.188;2023-06-22T09:52:38;12.50;;;7.13;;
75450;SDS011;64029;48.244;9.188;2023-06-22T09:55:05;12.50;;;7.27;;
75450;SDS011;64029;48.244;9.188;2023-06-22T09:57:32;12.63;;;7.47;;
75450;SDS011;64029;48.244;9.188;2023-06-22T09:59:59;9.60;;;6.20;;
75450;SDS011;64029;48.244;9.188;2023-06-22T10:02:26;11.80;;;7.30;;
75450;SDS011;64029;48.244;9.188;2023-06-22T10:04:52;13.57;;;6.40;;
75450;SDS011;64029;48.244;9.188;2023-06-22T10:07:20;11.10;;;7.67;;
75450;SDS011;64029;48.244;9.188;2023-06-22T10:09:47;17.10;;;7.50;;
75450;SDS011;64029;48.244;9.188;2023-06-22T10:12:14;14.23;;;7.37;;
75450;SDS011;64029;48.244;9.188;2023-06-22T10:14:41;8.37;;;6.37;;
75450;SDS011;64029;48.244;9.188;2023-06-22T10:17:08;10.90;;;6.93;;
75450;SDS011;64029;48.244;9.188;2023-06-22T10:19:34;15.17;;;7.43;;
75450;SDS011;64029;48.244;9.188;2023-06-22T10:22:02;12.83;;;7.00;;
75450;SDS011;64029;48.244;9.188;2023-06-22T10:24:31;14.10;;;7.57;;
75450;SDS011;64029;48.244;9.188;2023-06-22T10:26:58;15.07;;;7.77;;
75450;SDS011;64029;48.244;9.188;2023-06-22T10:29:25;12.00;;;7.70;;
75450;SDS011;64029;48.244;9.188;2023-06-22T10:31:52;11.00;;;6.60;;
75450;SDS011;64029;48.244;9.188;2023-06-22T10:34:18;15.00;;;7.50;;
75450;SDS011;64029;48.244;9.188;2023-06-22T10:36:45;10.33;;;6.80;;
75450;SDS011;64029;48.244;9.188;2023-06-22T10:39:13;10.90;;;6.37;;
75450;SDS011;64029;48.244;9.188;2023-06-22T10:41:42;13.10;;;6.43;;
75450;SDS011;64029;48.244;9.188;2023-06-22T10:44:08;14.37;;;7.30;;
75450;SDS011;64029;48.244;9.188;2023-06-22T10:46:35;16.10;;;6.87;;
75450;SDS011;64029;48.244;9.188;2023-06-22T10:49:02;14.00;;;6.43;;
75450;SDS011;64029;48.244;9.188;2023-06-22T10:51:29;15.70;;;6.80;;
75450;SDS011;64029;48.244;9.188;2023-06-22T10:53:57;10.67;;;6.57;;
75450;SDS011;64029;48.244;9.188;2023-06-22T10:56:24;13.10;;;6.77;;
75450;SDS011;64029;48.244;9.188;2023-06-22T10:58:52;11.17;;;7.10;;
75450;SDS011;64029;48.244;9.188;2023-06-22T11:01:19;13.40;;;6.97;;
75450;SDS011;64029;48.244;9.188;2023-06-22T11:03:46;12.50;;;6.40;;
75450;SDS011;64029;48.244;9.188;2023-06-22T11:06:13;11.47;;;6.80;;
75450;SDS011;64029;48.244;9.188;2023-06-22T11:08:43;9.73;;;6.90;;
75450;SDS011;64029;48.244;9.188;2023-06-22T11:11:10;17.53;;;7.57;;
75450;SDS011;64029;48.244;9.188;2023-06-22T11:13:37;10.30;;;6.37;;
75450;SDS011;64029;48.244;9.188;2023-06-22T11:16:05;12.73;;;6.63;;
75450;SDS011;64029;48.244;9.188;2023-06-22T11:18:32;8.40;;;6.73;;
75450;SDS011;64029;48.244;9.188;2023-06-22T11:20:59;13.17;;;7.13;;
75450;SDS011;64029;48.244;9.188;2023-06-22T11:23:26;11.67;;;6.80;;
75450;SDS011;64029;48.244;9.188;2023-06-22T11:25:53;13.13;;;6.37;;
75450;SDS011;64029;48.244;9.188;2023-06-22T11:28:20;15.20;;;7.27;;
75450;SDS011;64029;48.244;9.188;2023-06-22T11:30:47;10.80;;;7.17;;
75450;SDS011;64029;48.244;9.188;2023-06-22T11:33:16;11.80;;;8.00;;
75450;SDS011;64029;48.244;9.188;2023-06-22T11:35:42;18.97;;;7.60;;
75450;SDS011;64029;48.244;9.188;2023-06-22T11:38:09;11.27;;;7.47;;
75450;SDS011;64029;48.244;9.188;2023-06-22T11:40:36;9.50;;;6.60;;
75450;SDS011;64029;48.244;9.188;2023-06-22T11:43:03;18.17;;;6.90;;
75450;SDS011;64029;48.244;9.188;2023-06-22T11:45:30;11.93;;;6.50;;
75450;SDS011;64029;48.244;9.188;2023-06-22T11:47:57;12.57;;;6.93;;
75450;SDS011;64029;48.244;9.188;2023-06-22T11:50:25;11.13;;;6.97;;
75450;SDS011;64029;48.244;9.188;2023-06-22T11:52:53;10.80;;;6.80;;
75450;SDS011;64029;48.244;9.188;2023-06-22T11:55:20;11.00;;;6.30;;
75450;SDS011;64029;48.244;9.188;2023-06-22T11:57:54;16.67;;;7.20;;
75450;SDS011;64029;48.244;9.188;2023-06-22T12:00:23;10.33;;;6.60;;
75450;SDS011;64029;48.244;9.188;2023-06-22T12:02:50;9.13;;;6.43;;
75450;SDS011;64029;48.244;9.188;2023-06-22T12:05:18;11.90;;;7.00;;
75450;SDS011;64029;48.244;9.188;2023-06-22T12:07:46;14.53;;;6.97;;
75450;SDS011;64029;48.244;9.188;2023-06-22T12:10:13;12.20;;;7.40;;
75450;SDS011;64029;48.244;9.188;2023-06-22T12:12:40;12.07;;;7.13;;
75450;SDS011;64029;48.244;9.188;2023-06-22T12:15:08;14.53;;;6.97;;
75450;SDS011;64029;48.244;9.188;2023-06-22T12:17:36;8.93;;;6.90;;
75450;SDS011;64029;48.244;9.188;2023-06-22T12:20:03;10.73;;;6.40;;
75450;SDS011;64029;48.244;9.188;2023-06-22T12:22:33;13.97;;;6.50;;
75450;SDS011;64029;48.244;9.188;2023-06-22T12:25:01;12.20;;;7.00;;
75450;SDS011;64029;48.244;9.188;2023-06-22T12:27:28;12.40;;;7.73;;
75450;SDS011;64029;48.244;9.188;2023-06-22T12:29:55;15.33;;;7.70;;
75450;SDS011;64029;48.244;9.188;2023-06-22T12:32:22;13.40;;;7.40;;
75450;SDS011;64029;48.244;9.188;2023-06-22T12:34:50;12.77;;;7.47;;
75450;SDS011;64029;48.244;9.188;2023-06-22T12:37:17;14.33;;;6.80;;
75450;SDS011;64029;48.244;9.188;2023-06-22T12:39:44;17.47;;;7.67;;
75450;SDS011;64029;48.244;9.188;2023-06-22T12:42:12;12.43;;;8.00;;
75450;SDS011;64029;48.244;9.188;2023-06-22T12:44:39;14.90;;;7.47;;
75450;SDS011;64029;48.244;9.188;2023-06-22T12:47:06;16.73;;;8.10;;
75450;SDS011;64029;48.244;9.188;2023-06-22T12:49:33;14.87;;;7.70;;
75450;SDS011;64029;48.244;9.188;2023-06-22T12:52:01;11.33;;;8.20;;
75450;SDS011;64029;48.244;9.188;2023-06-22T12:54:27;10.30;;;7.40;;
75450;SDS011;64029;48.244;9.188;2023-06-22T12:56:55;12.90;;;7.53;;
75450;SDS011;64029;48.244;9.188;2023-06-22T12:59:23;12.53;;;8.30;;
75450;SDS011;64029;48.244;9.188;2023-06-22T13:01:50;10.63;;;7.07;;
75450;SDS011;64029;48.244;9.188;2023-06-22T13:04:17;15.63;;;8.33;;
75450;SDS011;64029;48.244;9.188;2023-06-22T13:06:47;14.50;;;7.73;;
75450;SDS011;64029;48.244;9.188;2023-06-22T13:09:14;11.67;;;8.00;;
75450;SDS011;64029;48.244;9.188;2023-06-22T13:11:42;14.80;;;7.80;;
75450;SDS011;64029;48.244;9.188;2023-06-22T13:14:09;11.17;;;7.00;;
75450;SDS011;64029;48.244;9.188;2023-06-22T13:16:37;12.13;;;8.40;;
75450;SDS011;64029;48.244;9.188;2023-06-22T13:19:04;17.93;;;7.40;;
75450;SDS011;64029;48.244;9.188;2023-06-22T13:21:31;11.83;;;6.70;;
75450;SDS011;64029;48.244;9.188;2023-06-22T13:23:59;15.07;;;8.23;;
75450;SDS011;64029;48.244;9.188;2023-06-22T13:26:26;11.70;;;7.80;;
75450;SDS011;64029;48.244;9.188;2023-06-22T13:28:53;12.27;;;7.27;;
75450;SDS011;64029;48.244;9.188;2023-06-22T13:31:20;11.10;;;7.67;;
75450;SDS011;64029;48.244;9.188;2023-06-22T13:33:49;14.30;;;7.93;;
75450;SDS011;64029;48.244;9.188;2023-06-22T13:36:17;17.07;;;7.87;;
75450;SDS011;64029;48.244;9.188;2023-06-22T13:38:44;13.60;;;7.07;;
75450;SDS011;64029;48.244;9.188;2023-06-22T13:41:12;11.37;;;6.73;;
75450;SDS011;64029;48.244;9.188;2023-06-22T13:43:39;12.03;;;6.90;;
75450;SDS011;64029;48.244;9.188;2023-06-22T13:46:05;15.27;;;5.90;;
75450;SDS011;64029;48.244;9.188;2023-06-22T13:48:32;15.53;;;6.03;;
75450;SDS011;64029;48.244;9.188;2023-06-22T13:51:00;15.53;;;5.83;;
75450;SDS011;64029;48.244;9.188;2023-06-22T13:53:27;12.77;;;5.80;;
75450;SDS011;64029;48.244;9.188;2023-06-22T13:55:55;20.23;;;5.73;;
75450;SDS011;64029;48.244;9.188;2023-06-22T13:58:22;13.93;;;5.70;;
75450;SDS011;64029;48.244;9.188;2023-06-22T14:00:49;15.10;;;5.60;;
75450;SDS011;64029;48.244;9.188;2023-06-22T14:03:15;13.80;;;5.03;;
75450;SDS011;64029;48.244;9.188;2023-06-22T14:05:45;14.37;;;5.50;;
75450;SDS011;64029;48.244;9.188;2023-06-22T14:08:13;15.93;;;5.33;;
75450;SDS011;64029;48.244;9.188;2023-06-22T14:10:40;12.67;;;5.27;;
75450;SDS011;64029;48.244;9.188;2023-06-22T14:13:07;13.10;;;4.90;;
75450;SDS011;64029;48.244;9.188;2023-06-22T14:15:34;12.00;;;4.57;;
75450;SDS011;64029;48.244;9.188;2023-06-22T14:18:01;12.13;;;4.87;;
75450;SDS011;64029;48.244;9.188;2023-06-22T14:20:27;10.97;;;4.70;;
75450;SDS011;64029;48.244;9.188;2023-06-22T14:22:54;10.87;;;4.47;;
75450;SDS011;64029;48.244;9.188;2023-06-22T14:25:22;12.50;;;4.50;;
75450;SDS011;64029;48.244;9.188;2023-06-22T14:27:49;9.53;;;3.67;;
75450;SDS011;64029;48.244;9.188;2023-06-22T14:30:16;11.77;;;4.20;;
75450;SDS011;64029;48.244;9.188;2023-06-22T14:32:43;9.00;;;4.20;;
75450;SDS011;64029;48.244;9.188;2023-06-22T14:35:11;8.07;;;3.53;;
75450;SDS011;64029;48.244;9.188;2023-06-22T14:37:37;8.27;;;3.80;;
75450;SDS011;64029;48.244;9.188;2023-06-22T14:40:04;11.13;;;4.10;;
75450;SDS011;64029;48.244;9.188;2023-06-22T14:42:33;8.97;;;4.07;;